Time;durP1;ratioP1;P1;durP2;ratioP2;P2;SDS_P1;SDS_P2;PMS_P1;PMS_P2;Temp;Humidity;BMP_temperature;BMP_pressure;BME280_temperature;BME280_humidity;BME280_pressure;Samples;Min_cycle;Max_cycle;Signal;HPM_P1;HPM_P2
2023/05/05 00:01:59;;;;;;;;;;;16.30;51.60;;;12.32;94.63;95685.50;5031356;28;19944;-51
2023/05/05 00:04:25;;;;;;;;;;;16.40;51.70;;;12.30;94.32;95685.75;5032804;28;19963;-53
2023/05/05 00:06:51;;;;;;;;;;;16.30;51.70;;;12.30;94.55;95679.59;5050082;28;19908;-50
2023/05/05 00:09:17;;;;;;;;;;;16.30;51.70;;;12.27;94.76;95679.06;5045901;28;19921;-49
2023/05/05 00:11:42;;;;;;;;;;;16.30;51.80;;;12.26;94.75;95677.47;5032803;28;19999;-53
2023/05/05 00:14:08;;;;;;;;;;;16.30;51.80;;;12.25;94.76;95681.25;5034017;28;19909;-53
2023/05/05 00:16:34;;;;;;;;;;;16.30;51.90;;;12.21;94.77;95677.50;5034456;28;19934;-49
2023/05/05 00:19:00;;;;;;;;;;;16.30;51.90;;;12.19;94.67;95674.31;5038340;28;20316;-48
2023/05/05 00:21:26;;;;;;;;;;;16.20;51.90;;;12.16;94.45;95671.34;5034163;28;20399;-49
2023/05/05 00:23:53;;;;;;;;;;;16.20;52.00;;;12.11;94.46;95676.72;5032749;28;20010;-52
2023/05/05 00:26:20;;;;;;;;;;;16.20;52.00;;;12.06;94.67;95672.19;5034130;28;19912;-50
2023/05/05 00:28:47;;;;;;;;;;;16.10;52.00;;;12.03;94.53;95678.06;5033136;28;19913;-52
2023/05/05 00:31:15;;;;;;;;;;;16.10;52.10;;;11.98;94.92;95678.09;5033952;28;19919;-51
2023/05/05 00:33:41;;;;;;;;;;;16.10;52.20;;;11.92;94.81;95676.50;5033689;28;19959;-53
2023/05/05 00:36:08;;;;;;;;;;;16.00;52.20;;;11.82;95.63;95678.09;5037667;28;20434;-50
2023/05/05 00:38:33;;;;;;;;;;;16.00;52.30;;;11.77;96.16;95683.44;5035197;28;19913;-54
2023/05/05 00:40:59;;;;;;;;;;;16.00;52.30;;;11.78;95.75;95677.03;5029158;28;20302;-49
2023/05/05 00:43:25;;;;;;;;;;;15.90;52.40;;;11.77;95.46;95677.31;5033977;28;19912;-51
2023/05/05 00:46:20;;;;;;;;;;;15.90;52.50;;;11.76;95.42;95676.50;5033356;28;19959;-52
2023/05/05 00:48:46;;;;;;;;;;;15.90;52.50;;;11.75;95.22;95674.09;5033563;28;19908;-54
2023/05/05 00:51:15;;;;;;;;;;;15.80;52.50;;;11.73;95.16;95674.38;5033868;28;19920;-50
2023/05/05 00:53:43;;;;;;;;;;;15.80;52.60;;;11.71;95.02;95679.16;5015050;28;19915;-51
2023/05/05 00:56:11;;;;;;;;;;;15.80;52.70;;;11.67;95.22;95686.13;5033348;28;19909;-49
2023/05/05 00:58:42;;;;;;;;;;;15.80;52.80;;;11.68;95.00;95671.69;5032413;28;19952;-50
2023/05/05 01:01:09;;;;;;;;;;;15.80;52.80;;;11.63;95.18;95679.72;5016349;28;19915;-54
2023/05/05 01:03:37;;;;;;;;;;;15.70;52.80;;;11.58;96.20;95677.06;5033056;28;20358;-49
2023/05/05 01:06:54;;;;;;;;;;;15.70;52.90;;;11.60;95.90;95690.94;5031311;28;19955;-53
2023/05/05 01:09:35;;;;;;;;;;;15.70;53.00;;;11.57;96.10;95683.47;4942637;28;19910;-51
2023/05/05 01:12:18;;;;;;;;;;;15.70;53.10;;;11.60;96.19;95677.59;5036510;28;19920;-50
2023/05/05 01:15:00;;;;;;;;;;;15.70;53.10;;;11.59;95.71;95678.66;5035216;28;20006;-49
2023/05/05 01:17:40;;;;;;;;;;;15.70;53.20;;;11.53;95.55;95677.88;5039280;28;20351;-52
2023/05/05 01:20:50;;;;;;;;;;;15.60;53.20;;;11.46;95.84;95673.88;5033158;28;19930;-49
2023/05/05 01:23:38;;;;;;;;;;;15.60;53.20;;;11.36;96.04;95677.34;5005411;28;19913;-49
2023/05/05 01:26:36;;;;;;;;;;;15.50;53.30;;;11.33;96.78;95681.31;5036089;28;19915;-48
2023/05/05 01:29:23;;;;;;;;;;;15.50;53.40;;;11.33;96.58;95685.88;5027521;28;19909;-51
2023/05/05 01:31:56;;;;;;;;;;;15.40;53.40;;;11.30;96.82;95679.19;5043501;23;19928;-52
2023/05/05 01:34:31;;;;;;;;;;;15.40;53.50;;;11.30;97.64;95681.84;5027977;28;19917;-48
2023/05/05 01:37:10;;;;;;;;;;;15.40;53.70;;;11.29;97.63;95674.94;5028437;28;19913;-47
2023/05/05 01:39:40;;;;;;;;;;;15.40;53.70;;;11.30;97.42;95678.41;5043961;28;19915;-47
2023/05/05 01:42:12;;;;;;;;;;;15.40;53.80;;;11.30;98.15;95679.19;5030761;28;19951;-48
2023/05/05 01:44:43;;;;;;;;;;;15.40;53.80;;;11.31;98.33;95688.81;5005802;28;19920;-47
2023/05/05 01:47:14;;;;;;;;;;;15.40;53.90;;;11.37;97.87;95686.94;5005216;28;20007;-52
2023/05/05 01:49:45;;;;;;;;;;;15.40;54.00;;;11.41;97.64;95696.00;5033179;28;19909;-51
2023/05/05 01:52:13;;;;;;;;;;;15.40;54.10;;;11.38;97.88;95683.22;5025482;28;19912;-50
2023/05/05 01:54:41;;;;;;;;;;;15.40;54.10;;;11.37;98.27;95683.47;5015588;28;19919;-51
2023/05/05 01:57:11;;;;;;;;;;;15.40;54.10;;;11.28;99.24;95683.19;5026972;28;19940;-53
2023/05/05 01:59:38;;;;;;;;;;;15.40;54.10;;;11.21;100.00;95688.00;5026209;28;19948;-55
2023/05/05 02:02:09;;;;;;;;;;;15.40;54.10;;;11.20;99.85;95683.72;5020410;28;19952;-53
2023/05/05 02:04:41;;;;;;;;;;;15.40;54.20;;;11.21;99.40;95686.13;5014998;28;19916;-52
2023/05/05 02:07:10;;;;;;;;;;;15.40;54.30;;;11.21;99.84;95690.66;5044820;28;20370;-52
2023/05/05 02:09:39;;;;;;;;;;;15.40;54.30;;;11.21;99.96;95691.44;5035742;28;20000;-49
2023/05/05 02:12:06;;;;;;;;;;;15.30;54.30;;;11.18;99.89;95683.19;5029050;28;19913;-53
2023/05/05 02:14:34;;;;;;;;;;;15.30;54.40;;;11.18;99.74;95686.66;5019639;28;20367;-52
2023/05/05 02:17:02;;;;;;;;;;;15.30;54.40;;;11.20;99.39;95684.53;5013401;28;19909;-48
2023/05/05 02:19:37;;;;;;;;;;;15.30;54.50;;;11.17;99.34;95684.25;5015625;28;19912;-53
2023/05/05 02:22:03;;;;;;;;;;;15.30;54.50;;;11.12;99.85;95685.03;5021797;28;19959;-55
2023/05/05 02:24:29;;;;;;;;;;;15.30;54.60;;;11.02;100.00;95679.72;5015090;28;20016;-55
2023/05/05 02:26:58;;;;;;;;;;;15.20;54.60;;;11.02;100.00;95674.38;5012451;28;19909;-54
2023/05/05 02:29:56;;;;;;;;;;;15.20;54.70;;;10.97;100.00;95675.19;5018055;28;19909;-53
2023/05/05 02:32:55;;;;;;;;;;;15.10;54.70;;;10.95;100.00;95676.50;4997778;28;20016;-50
2023/05/05 02:35:31;;;;;;;;;;;15.10;54.80;;;10.91;100.00;95670.09;5025257;28;19916;-50
2023/05/05 02:38:07;;;;;;;;;;;15.10;54.90;;;10.85;100.00;95683.41;5012951;28;19967;-52
2023/05/05 02:40:36;;;;;;;;;;;15.00;54.90;;;10.85;100.00;95679.94;5007485;28;20448;-52
2023/05/05 02:43:10;;;;;;;;;;;15.00;55.00;;;10.82;100.00;95678.59;4995842;28;19909;-50
2023/05/05 02:45:35;;;;;;;;;;;15.00;55.10;;;10.83;100.00;95677.53;4995494;28;19909;-52
2023/05/05 02:48:03;;;;;;;;;;;15.00;55.20;;;10.86;100.00;95678.88;5010422;28;19909;-54
2023/05/05 02:50:32;;;;;;;;;;;15.00;55.20;;;10.83;100.00;95666.88;5029224;28;19915;-53
2023/05/05 02:52:59;;;;;;;;;;;15.00;55.20;;;10.82;100.00;95675.16;5022123;28;19913;-51
2023/05/05 02:55:53;;;;;;;;;;;15.00;55.30;;;10.77;100.00;95667.94;5018559;28;20351;-54
2023/05/05 02:58:47;;;;;;;;;;;15.00;55.30;;;10.76;100.00;95671.66;5012688;28;19913;-56
2023/05/05 03:02:06;;;;;;;;;;;15.00;55.30;;;10.74;100.00;95676.44;5007294;28;20460;-52
2023/05/05 03:04:52;;;;;;;;;;;14.90;55.30;;;10.79;100.00;95681.00;5015826;28;20070;-47
2023/05/05 03:07:39;;;;;;;;;;;14.90;55.40;;;10.83;100.00;95676.75;5041458;28;19970;-50
2023/05/05 03:10:14;;;;;;;;;;;15.00;55.60;;;10.84;100.00;95679.16;5044724;28;19915;-47
2023/05/05 03:13:05;;;;;;;;;;;15.00;55.60;;;10.93;100.00;95675.97;5015326;28;19913;-49
2023/05/05 03:15:42;;;;;;;;;;;15.00;55.70;;;10.99;100.00;95673.03;5014895;28;20007;-50
2023/05/05 03:18:10;;;;;;;;;;;15.10;55.70;;;11.07;100.00;95669.06;5013823;28;19913;-54
2023/05/05 03:20:39;;;;;;;;;;;15.10;55.80;;;11.16;99.85;95670.13;5014515;28;19915;-48
2023/05/05 03:23:06;;;;;;;;;;;15.20;55.80;;;11.23;99.32;95662.66;5013327;28;19915;-49
2023/05/05 03:25:47;;;;;;;;;;;15.20;55.80;;;11.27;98.86;95658.38;5032208;28;19954;-51
2023/05/05 03:28:15;;;;;;;;;;;15.30;55.80;;;11.32;98.92;95665.59;5026885;28;19909;-48
2023/05/05 03:30:41;;;;;;;;;;;15.40;55.90;;;11.42;98.95;95670.94;5018687;28;20229;-51
2023/05/05 03:33:10;;;;;;;;;;;15.40;55.90;;;11.54;98.50;95668.00;5017986;28;19917;-47
2023/05/05 03:35:35;;;;;;;;;;;15.50;56.00;;;11.62;97.92;95667.44;5033506;28;19916;-48
2023/05/05 03:38:01;;;;;;;;;;;15.60;55.90;;;11.65;97.51;95672.25;5034312;28;19917;-50
2023/05/05 03:40:28;;;;;;;;;;;15.70;55.90;;;11.67;97.17;95675.44;5023142;28;19909;-49
2023/05/05 03:42:54;;;;;;;;;;;15.70;55.80;;;11.74;96.92;95677.84;5018216;28;19917;-53
2023/05/05 03:45:20;;;;;;;;;;;15.80;55.80;;;11.78;96.64;95678.88;5024526;28;20348;-52
2023/05/05 03:47:46;;;;;;;;;;;15.90;55.80;;;11.83;96.58;95681.56;5029857;28;20016;-51
2023/05/05 03:50:12;;;;;;;;;;;15.90;55.80;;;11.87;96.53;95673.84;5006581;28;19984;-49
2023/05/05 03:52:38;;;;;;;;;;;16.00;55.80;;;11.88;97.47;95676.25;5030324;28;19921;-50
2023/05/05 03:55:05;;;;;;;;;;;16.00;55.70;;;11.91;97.49;95677.56;5024532;28;20260;-49
2023/05/05 03:57:33;;;;;;;;;;;16.10;55.70;;;11.89;97.18;95669.84;5017549;28;19913;-49
2023/05/05 03:59:59;;;;;;;;;;;16.10;55.70;;;11.94;96.36;95669.00;5020070;28;19909;-52
2023/05/05 04:02:25;;;;;;;;;;;16.10;55.60;;;11.99;95.85;95683.16;5013866;28;19909;-55
2023/05/05 04:04:51;;;;;;;;;;;16.20;55.70;;;12.03;93.71;95672.72;5020803;28;19958;-51
2023/05/05 04:07:17;;;;;;;;;;;16.20;55.70;;;12.10;93.36;95675.94;5030975;28;20268;-50
2023/05/05 04:09:45;;;;;;;;;;;16.20;55.60;;;12.11;93.65;95682.88;5024607;28;19952;-49
2023/05/05 04:12:11;;;;;;;;;;;16.20;55.60;;;12.11;93.07;95680.19;5015824;28;20040;-50
2023/05/05 04:14:37;;;;;;;;;;;16.30;55.60;;;12.11;93.15;95679.41;5024897;28;20325;-48
2023/05/05 04:17:05;;;;;;;;;;;16.30;55.50;;;12.10;94.19;95686.63;5025004;28;19974;-48
2023/05/05 04:19:34;;;;;;;;;;;16.30;55.50;;;12.07;94.68;95689.03;5023694;28;19909;-47
2023/05/05 04:21:59;;;;;;;;;;;16.30;55.50;;;12.11;94.83;95688.22;5027173;28;19915;-55
2023/05/05 04:24:25;;;;;;;;;;;16.40;55.60;;;12.15;94.52;95691.94;5022872;28;19909;-51
2023/05/05 04:26:52;;;;;;;;;;;16.40;55.50;;;12.17;93.97;95692.47;5014197;28;19909;-48
2023/05/05 04:29:18;;;;;;;;;;;16.40;55.50;;;12.18;93.24;95694.06;5023874;28;20003;-51
2023/05/05 04:31:45;;;;;;;;;;;16.50;55.50;;;12.19;92.83;95695.69;4942908;28;2115079;-53
2023/05/05 04:34:10;;;;;;;;;;;16.50;56.00;;;12.24;93.07;95687.63;5036037;28;20410;-54
2023/05/05 04:36:36;;;;;;;;;;;16.50;55.40;;;12.26;94.88;95690.03;5043489;28;20003;-53
2023/05/05 04:39:02;;;;;;;;;;;16.60;55.40;;;12.25;95.20;95696.44;5025137;28;19912;-55
2023/05/05 04:41:28;;;;;;;;;;;16.60;55.30;;;12.23;94.04;95695.94;5029949;28;19966;-54
2023/05/05 04:43:54;;;;;;;;;;;16.60;55.30;;;12.26;93.76;95698.06;5025396;28;20322;-54
2023/05/05 04:46:24;;;;;;;;;;;16.60;55.30;;;12.34;93.79;95696.69;5029354;28;19909;-54
2023/05/05 04:48:49;;;;;;;;;;;16.70;55.40;;;12.35;92.78;95692.97;5033620;28;19915;-54
2023/05/05 04:51:15;;;;;;;;;;;16.70;55.40;;;12.42;93.18;95699.59;5017472;28;20379;-52
2023/05/05 04:53:41;;;;;;;;;;;16.80;55.40;;;12.46;94.36;95692.63;5017230;28;19913;-52
2023/05/05 04:56:07;;;;;;;;;;;16.80;55.30;;;12.48;93.87;95697.72;5014415;28;19909;-51
2023/05/05 04:58:32;;;;;;;;;;;16.90;55.30;;;12.49;94.65;95696.63;5017429;28;19917;-51
2023/05/05 05:00:58;;;;;;;;;;;16.90;55.30;;;12.55;93.96;95700.09;5017392;28;19916;-53
2023/05/05 05:03:24;;;;;;;;;;;16.90;55.30;;;12.54;93.40;95703.84;5024550;28;20387;-53
2023/05/05 05:05:50;;;;;;;;;;;17.00;55.30;;;12.63;92.79;95694.97;5027119;28;20279;-51
2023/05/05 05:08:16;;;;;;;;;;;17.00;55.90;;;12.66;93.09;95697.09;5028069;28;19908;-48
2023/05/05 05:10:43;;;;;;;;;;;17.00;55.20;;;12.67;94.17;95689.88;5017968;28;20004;-51
2023/05/05 05:13:10;;;;;;;;;;;17.10;55.20;;;12.66;93.56;95705.13;5014483;28;20394;-55
2023/05/05 05:15:38;;;;;;;;;;;17.10;55.20;;;12.72;93.31;95695.19;5027648;28;19909;-50
2023/05/05 05:18:06;;;;;;;;;;;17.10;55.10;;;12.72;92.89;95692.50;5028884;28;19948;-55
2023/05/05 05:20:32;;;;;;;;;;;17.20;55.20;;;12.73;92.65;95697.59;5002654;28;19909;-53
2023/05/05 05:23:00;;;;;;;;;;;17.10;55.10;;;12.71;92.81;95698.94;5011353;28;19971;-53
2023/05/05 05:25:27;;;;;;;;;;;17.10;55.00;;;12.65;93.59;95700.81;5028703;28;19923;-50
2023/05/05 05:27:53;;;;;;;;;;;17.10;55.00;;;12.63;93.08;95702.16;5025859;28;19936;-48
2023/05/05 05:30:19;;;;;;;;;;;17.10;55.00;;;12.64;92.61;95706.47;5027576;28;19971;-53
2023/05/05 05:32:44;;;;;;;;;;;17.10;55.00;;;12.64;93.21;95704.59;5016353;28;19935;-52
2023/05/05 05:35:10;;;;;;;;;;;17.10;55.00;;;12.68;93.04;95715.53;5024000;28;19908;-53
2023/05/05 05:37:36;;;;;;;;;;;17.10;55.60;;;12.79;93.21;95713.63;5025650;28;19951;-54
2023/05/05 05:40:05;;;;;;;;;;;17.30;55.00;;;13.03;93.43;95722.56;5014833;28;19909;-51
2023/05/05 05:42:31;;;;;;;;;;;17.60;54.90;;;13.33;93.48;95716.25;5022059;28;20386;-51
2023/05/05 05:44:59;;;;;;;;;;;17.90;54.90;;;13.65;91.26;95720.28;5026835;28;19909;-50
2023/05/05 05:47:25;;;;;;;;;;;18.20;54.90;;;14.01;87.16;95726.13;5024176;28;20007;-50
2023/05/05 05:49:51;;;;;;;;;;;18.60;54.70;;;14.35;83.69;95722.56;5014835;28;20391;-52
2023/05/05 05:52:17;;;;;;;;;;;19.00;54.60;;;14.67;78.93;95730.03;5024002;28;20015;-48
2023/05/05 05:54:42;;;;;;;;;;;19.40;54.40;;;14.99;77.80;95725.88;5014761;28;20650;-48
2023/05/05 05:57:08;;;;;;;;;;;19.70;54.10;;;15.33;75.11;95732.91;5013393;28;19909;-50
2023/05/05 05:59:34;;;;;;;;;;;20.00;53.80;;;15.71;73.00;95725.66;5024830;28;19967;-48
2023/05/05 06:02:00;;;;;;;;;;;20.50;53.50;;;16.09;70.16;95734.41;5013424;28;19909;-50
2023/05/05 06:04:26;;;;;;;;;;;20.90;53.10;;;16.46;67.15;95738.03;5019794;28;19909;-54
2023/05/05 06:06:51;;;;;;;;;;;21.30;52.60;;;16.74;64.92;95736.16;5021612;28;19937;-52
2023/05/05 06:09:17;;;;;;;;;;;21.70;52.80;;;17.10;64.29;95740.81;5026714;28;19948;-53
2023/05/05 06:11:43;;;;;;;;;;;22.00;51.70;;;17.33;62.45;95736.28;5015466;28;19913;-50
2023/05/05 06:14:08;;;;;;;;;;;22.40;51.30;;;17.62;61.53;95735.88;5013001;28;19951;-56
2023/05/05 06:16:34;;;;;;;;;;;22.70;50.90;;;17.77;59.71;95732.06;5022801;28;19916;-52
2023/05/05 06:19:00;;;;;;;;;;;23.10;50.50;;;17.89;59.01;95731.50;5014883;28;19909;-49
2023/05/05 06:21:26;;;;;;;;;;;23.40;50.00;;;18.12;59.44;95733.09;5023882;28;19916;-52
2023/05/05 06:23:52;;;;;;;;;;;23.70;49.60;;;18.43;58.59;95730.38;5029376;28;19916;-49
2023/05/05 06:26:18;;;;;;;;;;;24.00;49.20;;;18.66;56.81;95730.31;5032848;28;19931;-53
2023/05/05 06:28:44;;;;;;;;;;;24.30;48.80;;;18.90;55.42;95736.13;5020126;28;19909;-49
2023/05/05 06:31:11;;;;;;;;;;;24.60;48.40;;;19.17;55.91;95737.75;5021513;28;20279;-48
2023/05/05 06:33:37;;;;;;;;;;;24.90;47.90;;;19.40;54.92;95733.03;5027094;28;19939;-52
2023/05/05 06:36:03;;;;;;;;;;;25.20;47.60;;;19.59;54.01;95734.63;5030199;28;19909;-48
2023/05/05 06:38:29;;;;;;;;;;;25.50;47.20;;;19.83;52.76;95739.56;5013759;28;19909;-49
2023/05/05 06:40:57;;;;;;;;;;;25.80;46.90;;;20.02;52.94;95740.00;5023569;28;19908;-49
2023/05/05 06:43:23;;;;;;;;;;;26.00;46.60;;;20.27;51.23;95729.47;5043282;28;19959;-51
2023/05/05 06:45:48;;;;;;;;;;;26.30;46.30;;;20.55;50.44;95730.66;5032738;28;19908;-50
2023/05/05 06:48:14;;;;;;;;;;;26.50;45.90;;;20.72;50.05;95729.03;5031229;28;19923;-55
2023/05/05 06:50:41;;;;;;;;;;;26.70;45.60;;;20.93;50.14;95737.19;5032155;28;20371;-50
2023/05/05 06:53:06;;;;;;;;;;;26.90;45.30;;;21.04;49.41;95735.69;5031376;28;19916;-51
2023/05/05 06:55:32;;;;;;;;;;;27.10;45.10;;;21.25;47.63;95736.53;5032401;28;20371;-53
2023/05/05 06:57:58;;;;;;;;;;;27.20;44.70;;;21.29;47.04;95739.38;5014054;28;20322;-50
2023/05/05 07:00:24;;;;;;;;;;;27.30;44.40;;;21.54;46.74;95732.19;5031361;28;19909;-51
2023/05/05 07:02:49;;;;;;;;;;;27.50;44.20;;;21.76;45.85;95733.78;5031780;28;19911;-50
2023/05/05 07:05:15;;;;;;;;;;;27.70;43.90;;;22.02;45.76;95735.44;5031179;28;20003;-51
2023/05/05 07:07:55;;;;;;;;;;;28.00;43.60;;;22.21;45.41;95741.19;5031946;28;19915;-49
2023/05/05 07:10:23;;;;;;;;;;;28.30;43.30;;;22.34;45.85;95739.28;5013247;28;19912;-50
2023/05/05 07:12:50;;;;;;;;;;;28.50;42.90;;;22.66;45.14;95742.28;5031192;28;19940;-51
2023/05/05 07:15:17;;;;;;;;;;;28.80;42.60;;;23.03;44.85;95743.94;5032007;28;20275;-49
2023/05/05 07:17:43;;;;;;;;;;;29.00;42.30;;;23.01;43.21;95738.03;5019883;28;19915;-50
2023/05/05 07:20:09;;;;;;;;;;;29.30;42.10;;;23.26;43.38;95741.53;5014117;28;19921;-49
2023/05/05 07:22:35;;;;;;;;;;;29.50;41.70;;;23.42;43.63;95738.09;5030740;28;19908;-50
2023/05/05 07:25:02;;;;;;;;;;;29.80;41.40;;;23.58;42.40;95736.25;5031884;28;19970;-51
2023/05/05 07:27:30;;;;;;;;;;;30.00;41.20;;;23.49;42.77;95739.09;5031626;28;19909;-49
2023/05/05 07:29:55;;;;;;;;;;;30.00;40.70;;;23.45;42.19;95738.19;5005893;28;19909;-49
2023/05/05 07:32:21;;;;;;;;;;;30.00;40.50;;;23.45;42.42;95727.34;5026189;23;20035;-47
2023/05/05 07:34:47;;;;;;;;;;;29.90;40.40;;;23.53;41.81;95731.03;5029034;28;19924;-50
2023/05/05 07:37:12;;;;;;;;;;;29.90;40.30;;;23.66;42.63;95724.44;5030776;28;19909;-49
2023/05/05 07:39:38;;;;;;;;;;;30.00;40.10;;;23.92;41.63;95729.47;5031624;28;19935;-49
2023/05/05 07:42:05;;;;;;;;;;;30.20;39.90;;;24.21;41.24;95727.50;5033131;28;19908;-48
2023/05/05 07:44:31;;;;;;;;;;;30.30;39.40;;;24.37;41.28;95724.81;5031474;28;20292;-50
2023/05/05 07:46:57;;;;;;;;;;;30.40;39.30;;;24.43;40.94;95723.44;5037064;28;19908;-52
2023/05/05 07:49:22;;;;;;;;;;;30.50;39.80;;;24.75;40.99;95720.72;5031847;28;19954;-49
2023/05/05 07:51:49;;;;;;;;;;;30.60;39.00;;;24.68;41.90;95718.63;5030489;28;20545;-50
2023/05/05 07:54:16;;;;;;;;;;;30.80;38.80;;;24.59;41.54;95721.53;5030882;28;20011;-48
2023/05/05 07:56:42;;;;;;;;;;;30.90;38.50;;;24.78;40.60;95720.03;5031082;28;20283;-47
2023/05/05 07:59:10;;;;;;;;;;;31.10;38.30;;;24.93;41.21;95717.28;5044241;28;19915;-48
2023/05/05 08:01:36;;;;;;;;;;;31.30;38.20;;;25.12;40.32;95713.03;5033889;28;19912;-48
2023/05/05 08:04:02;;;;;;;;;;;31.50;38.00;;;25.23;40.43;95716.84;5032357;28;19998;-56
2023/05/05 08:06:30;;;;;;;;;;;31.60;37.70;;;25.47;40.28;95715.00;5042655;28;20035;-50
2023/05/05 08:08:58;;;;;;;;;;;31.80;37.60;;;25.66;39.21;95711.50;5035081;28;19948;-48
2023/05/05 08:11:25;;;;;;;;;;;31.90;37.50;;;25.62;38.81;95711.44;5032897;28;19912;-52
2023/05/05 08:13:51;;;;;;;;;;;32.10;37.40;;;25.54;39.16;95713.22;5030786;28;20420;-52
2023/05/05 08:16:17;;;;;;;;;;;32.10;37.00;;;25.64;39.05;95711.09;5042201;28;19913;-51
2023/05/05 08:18:43;;;;;;;;;;;32.40;36.80;;;25.82;38.43;95707.59;5035686;28;19931;-54
2023/05/05 08:21:10;;;;;;;;;;;32.50;36.60;;;25.90;38.46;95703.06;5020899;28;20368;-48
2023/05/05 08:23:37;;;;;;;;;;;32.80;36.50;;;26.05;38.09;95701.41;5046795;28;20428;-48
2023/05/05 08:26:05;;;;;;;;;;;33.00;36.30;;;26.36;37.99;95702.34;5027849;28;20004;-48
2023/05/05 08:28:34;;;;;;;;;;;33.20;36.10;;;26.09;38.34;95696.78;5033695;28;20042;-49
2023/05/05 08:31:00;;;;;;;;;;;33.20;35.80;;;26.34;38.72;95694.50;5037659;28;19913;-48
2023/05/05 08:33:25;;;;;;;;;;;33.30;35.60;;;26.61;37.30;95694.63;5036972;28;19923;-50
2023/05/05 08:35:51;;;;;;;;;;;33.40;35.50;;;26.90;37.94;95701.31;5038926;28;20011;-53
2023/05/05 08:38:17;;;;;;;;;;;33.60;35.40;;;26.66;38.18;95689.59;5033642;28;20397;-52
2023/05/05 08:40:44;;;;;;;;;;;33.70;35.20;;;26.93;37.05;95690.44;5033442;28;19908;-48
2023/05/05 08:43:10;;;;;;;;;;;33.90;35.00;;;27.25;35.85;95686.63;5033613;28;20271;-49
2023/05/05 08:45:39;;;;;;;;;;;33.90;34.70;;;27.57;35.67;95693.28;5033957;28;19913;-48
2023/05/05 08:48:05;;;;;;;;;;;34.10;34.50;;;27.86;35.97;95686.25;5032900;28;22019;-49
2023/05/05 08:50:31;;;;;;;;;;;34.20;34.40;;;27.95;35.56;95685.16;5043129;28;19912;-53
2023/05/05 08:53:20;;;;;;;;;;;34.50;34.20;;;27.97;34.61;95677.38;5049660;28;20024;-50
2023/05/05 08:55:58;;;;;;;;;;;34.70;34.00;;;27.60;35.54;95684.34;5045864;28;19912;-52
2023/05/05 08:58:24;;;;;;;;;;;35.00;33.70;;;27.50;36.34;95674.06;5051995;28;19912;-51
2023/05/05 09:00:51;;;;;;;;;;;35.10;34.10;;;27.73;35.97;95676.69;5049679;28;19931;-49
2023/05/05 09:03:17;;;;;;;;;;;35.30;33.30;;;27.78;36.18;95672.88;5032155;28;19935;-48
2023/05/05 09:05:43;;;;;;;;;;;35.30;33.00;;;27.96;36.41;95684.03;5045658;28;19909;-48
2023/05/05 09:08:12;;;;;;;;;;;35.40;32.90;;;27.96;35.28;95682.06;5020233;28;20012;-48
2023/05/05 09:10:43;;;;;;;;;;;35.50;32.90;;;28.23;34.91;95682.72;5045721;28;19915;-48
2023/05/05 09:13:09;;;;;;;;;;;35.60;32.90;;;28.18;35.01;95685.03;5021699;28;20333;-48
2023/05/05 09:15:37;;;;;;;;;;;35.70;32.70;;;28.35;35.02;95678.94;5049150;28;19955;-49
2023/05/05 09:18:07;;;;;;;;;;;35.90;32.50;;;28.35;34.89;95678.94;5051401;28;20417;-50
2023/05/05 09:20:38;;;;;;;;;;;36.00;32.20;;;27.81;36.01;95674.84;5035538;28;19908;-48
2023/05/05 09:23:17;;;;;;;;;;;35.90;32.00;;;27.24;36.44;95683.09;5052215;28;19908;-48
2023/05/05 09:26:04;;;;;;;;;;;35.80;31.90;;;27.25;36.48;95672.94;5053240;28;20354;-51
2023/05/05 09:28:30;;;;;;;;;;;35.70;31.90;;;27.59;36.22;95665.56;5051354;28;20450;-50
2023/05/05 09:31:14;;;;;;;;;;;35.70;32.00;;;27.92;36.52;95667.53;5043962;28;19908;-48
2023/05/05 09:33:40;;;;;;;;;;;35.80;32.00;;;28.02;35.24;95663.38;5033334;28;19917;-48
2023/05/05 09:36:06;;;;;;;;;;;35.90;31.90;;;27.88;35.40;95662.03;5043126;28;19912;-48
2023/05/05 09:38:35;;;;;;;;;;;35.80;31.70;;;27.96;34.08;95654.69;5052105;28;19930;-51
2023/05/05 09:41:01;;;;;;;;;;;35.90;31.60;;;28.13;34.13;95653.28;5051584;28;20091;-48
2023/05/05 09:43:27;;;;;;;;;;;35.90;31.30;;;28.16;33.80;95647.06;5034654;28;20011;-52
2023/05/05 09:46:06;;;;;;;;;;;35.90;31.10;;;28.09;34.03;95642.31;5034995;28;20450;-48
2023/05/05 09:48:32;;;;;;;;;;;35.90;31.00;;;28.42;34.34;95642.63;5034487;28;19908;-48
2023/05/05 09:50:58;;;;;;;;;;;36.10;31.00;;;28.42;34.47;95637.94;5052292;28;19909;-51
2023/05/05 09:53:26;;;;;;;;;;;36.20;30.90;;;28.76;34.01;95641.34;5044594;28;20077;-48
2023/05/05 09:55:59;;;;;;;;;;;36.30;30.70;;;28.93;33.90;95630.91;5025737;28;19959;-51
2023/05/05 09:58:30;;;;;;;;;;;36.40;30.60;;;28.95;33.31;95637.53;5050719;28;19989;-48
2023/05/05 10:00:57;;;;;;;;;;;36.50;30.50;;;29.23;32.65;95636.94;5052317;28;20311;-52
2023/05/05 10:03:24;;;;;;;;;;;36.60;30.40;;;29.62;32.21;95630.13;5032345;28;20249;-48
2023/05/05 10:05:53;;;;;;;;;;;36.80;31.10;;;29.77;33.05;95628.97;5029953;28;20118;-51
2023/05/05 10:08:25;;;;;;;;;;;36.90;30.20;;;29.99;32.04;95627.06;5047162;28;19995;-48
2023/05/05 10:10:53;;;;;;;;;;;37.10;30.10;;;30.36;31.85;95623.22;5050807;28;19912;-46
2023/05/05 10:13:22;;;;;;;;;;;37.30;30.10;;;30.23;32.38;95616.53;5038756;28;19908;-47
2023/05/05 10:15:54;;;;;;;;;;;37.50;30.00;;;30.05;31.79;95611.78;5052077;28;19912;-46
2023/05/05 10:18:26;;;;;;;;;;;37.60;29.80;;;30.04;31.55;95604.72;5045379;28;19908;-45
2023/05/05 10:20:59;;;;;;;;;;;37.70;29.80;;;29.88;31.95;95599.59;5044295;28;19915;-46
2023/05/05 10:23:53;;;;;;;;;;;37.60;29.60;;;29.10;33.00;95602.81;5044495;28;19924;-46
2023/05/05 10:26:23;;;;;;;;;;;37.50;29.50;;;29.32;32.62;95605.66;5027890;28;19908;-50
2023/05/05 10:29:00;;;;;;;;;;;37.40;29.40;;;29.58;32.03;95602.59;5032218;28;19908;-48
2023/05/05 10:31:45;;;;;;;;;;;37.40;29.40;;;29.03;32.48;95605.53;5043772;28;19916;-49
2023/05/05 10:34:25;;;;;;;;;;;37.40;29.50;;;29.00;32.93;95590.59;5045044;28;19923;-46
2023/05/05 10:36:53;;;;;;;;;;;37.30;29.40;;;29.54;32.25;95581.84;5041114;28;19920;-45
2023/05/05 10:39:21;;;;;;;;;;;37.20;29.30;;;29.79;32.41;95585.44;5051387;28;19958;-45
2023/05/05 10:41:48;;;;;;;;;;;37.30;29.30;;;29.57;32.16;95581.84;5029558;28;20011;-45
2023/05/05 10:44:16;;;;;;;;;;;37.30;29.30;;;29.40;32.77;95583.34;5048843;28;19916;-45
2023/05/05 10:46:43;;;;;;;;;;;37.30;29.30;;;29.31;33.18;95585.69;5049327;28;20313;-52
2023/05/05 10:49:15;;;;;;;;;;;37.40;29.30;;;29.48;32.18;95576.72;5037992;28;20056;-45
2023/05/05 10:51:58;;;;;;;;;;;37.30;29.30;;;28.97;33.35;95580.38;5051579;28;19916;-46
2023/05/05 10:54:33;;;;;;;;;;;37.20;29.20;;;28.81;33.06;95579.91;5040588;28;19909;-45
2023/05/05 10:57:01;;;;;;;;;;;36.90;29.20;;;28.56;33.18;95574.25;5032635;28;19919;-52
2023/05/05 10:59:36;;;;;;;;;;;36.70;29.30;;;28.79;33.91;95569.31;5032669;28;19909;-51
2023/05/05 11:02:27;;;;;;;;;;;36.50;29.40;;;29.14;32.98;95561.69;5037738;28;20390;-51
2023/05/05 11:05:12;;;;;;;;;;;36.40;29.50;;;29.64;32.47;95553.66;5050317;28;19914;-51
2023/05/05 11:07:39;;;;;;;;;;;36.70;29.50;;;29.85;32.93;95555.66;5050938;28;19950;-50
2023/05/05 11:10:08;;;;;;;;;;;36.90;29.30;;;30.02;32.00;95556.84;5051248;28;20031;-51
2023/05/05 11:12:58;;;;;;;;;;;37.30;29.30;;;30.10;31.67;95552.94;5029174;28;20298;-50
2023/05/05 11:15:26;;;;;;;;;;;37.60;29.10;;;30.11;31.04;95543.53;5040950;28;19909;-47
2023/05/05 11:17:57;;;;;;;;;;;37.70;28.90;;;30.20;31.34;95541.19;5036599;28;19932;-49
2023/05/05 11:20:44;;;;;;;;;;;37.90;28.80;;;30.43;31.15;95538.84;5039303;28;19908;-46
2023/05/05 11:23:09;;;;;;;;;;;38.00;28.70;;;30.71;30.53;95539.19;5045816;28;19912;-46
2023/05/05 11:25:39;;;;;;;;;;;38.10;28.60;;;31.08;31.11;95534.00;5039722;28;19913;-52
2023/05/05 11:28:12;;;;;;;;;;;38.30;28.60;;;31.31;29.69;95527.22;5014691;28;20398;-48
2023/05/05 11:30:57;;;;;;;;;;;38.50;28.60;;;31.46;29.26;95520.47;5043975;28;20378;-50